sensor_id;sensor_type;location;lat;lon;timestamp;pressure;altitude;pressure_sealevel;temperature;humidity
39363;BME280;25088;43.238;23.110;2023-12-28T00:00:28;97506.91;;;8.53;41.31
39363;BME280;25088;43.238;23.110;2023-12-28T00:02:53;97508.97;;;8.58;41.27
39363;BME280;25088;43.238;23.110;2023-12-28T00:05:19;97515.94;;;8.47;42.06
39363;BME280;25088;43.238;23.110;2023-12-28T00:07:44;97508.22;;;8.44;42.64
39363;BME280;25088;43.238;23.110;2023-12-28T00:10:10;97504.13;;;8.22;43.20
39363;BME280;25088;43.238;23.110;2023-12-28T00:12:36;97494.31;;;8.21;42.43
39363;BME280;25088;43.238;23.110;2023-12-28T00:15:01;97514.94;;;8.42;42.23
39363;BME280;25088;43.238;23.110;2023-12-28T00:17:27;97524.75;;;8.43;41.67
39363;BME280;25088;43.238;23.110;2023-12-28T00:19:52;97526.38;;;8.57;41.26
39363;BME280;25088;43.238;23.110;2023-12-28T00:22:17;97512.50;;;8.65;41.47
39363;BME280;25088;43.238;23.110;2023-12-28T00:24:43;97506.44;;;8.63;41.00
39363;BME280;25088;43.238;23.110;2023-12-28T00:27:08;97518.28;;;8.75;40.99
39363;BME280;25088;43.238;23.110;2023-12-28T00:29:34;97524.75;;;8.81;41.16
39363;BME280;25088;43.238;23.110;2023-12-28T00:32:07;97530.84;;;8.76;41.15
39363;BME280;25088;43.238;23.110;2023-12-28T00:34:32;97531.84;;;8.82;40.23
39363;BME280;25088;43.238;23.110;2023-12-28T00:36:58;97527.13;;;8.71;41.14
39363;BME280;25088;43.238;23.110;2023-12-28T00:39:23;97519.44;;;8.61;41.31
39363;BME280;25088;43.238;23.110;2023-12-28T00:41:49;97512.63;;;8.45;42.22
39363;BME280;25088;43.238;23.110;2023-12-28T00:44:14;97501.78;;;8.32;42.21
39363;BME280;25088;43.238;23.110;2023-12-28T00:46:40;97530.03;;;8.31;42.57
39363;BME280;25088;43.238;23.110;2023-12-28T00:49:05;97535.41;;;8.44;42.39
39363;BME280;25088;43.238;23.110;2023-12-28T00:51:31;97544.41;;;8.51;42.72
39363;BME280;25088;43.238;23.110;2023-12-28T00:53:56;97535.25;;;8.39;42.63
39363;BME280;25088;43.238;23.110;2023-12-28T00:56:22;97524.59;;;8.31;43.42
39363;BME280;25088;43.238;23.110;2023-12-28T00:58:47;97525.00;;;8.28;43.39
39363;BME280;25088;43.238;23.110;2023-12-28T01:01:13;97501.03;;;8.12;43.28
39363;BME280;25088;43.238;23.110;2023-12-28T01:03:38;97530.84;;;8.38;42.52
39363;BME280;25088;43.238;23.110;2023-12-28T01:06:05;97534.41;;;8.45;42.31
39363;BME280;25088;43.238;23.110;2023-12-28T01:08:30;97522.91;;;8.37;43.22
39363;BME280;25088;43.238;23.110;2023-12-28T01:10:56;97527.31;;;8.24;43.83
39363;BME280;25088;43.238;23.110;2023-12-28T01:13:21;97502.00;;;7.86;44.43
39363;BME280;25088;43.238;23.110;2023-12-28T01:15:47;97519.91;;;8.00;43.95
39363;BME280;25088;43.238;23.110;2023-12-28T01:18:12;97522.41;;;8.01;44.25
39363;BME280;25088;43.238;23.110;2023-12-28T01:20:38;97444.75;;;7.67;43.42
39363;BME280;25088;43.238;23.110;2023-12-28T01:23:03;97506.56;;;7.85;44.13
39363;BME280;25088;43.238;23.110;2023-12-28T01:25:29;97497.22;;;7.68;44.04
39363;BME280;25088;43.238;23.110;2023-12-28T01:27:54;97504.47;;;7.81;43.86
39363;BME280;25088;43.238;23.110;2023-12-28T01:30:19;97504.03;;;7.90;44.71
39363;BME280;25088;43.238;23.110;2023-12-28T01:32:45;97494.66;;;7.80;44.87
39363;BME280;25088;43.238;23.110;2023-12-28T01:35:11;97490.97;;;7.67;44.18
39363;BME280;25088;43.238;23.110;2023-12-28T01:37:37;97437.09;;;7.51;43.72
39363;BME280;25088;43.238;23.110;2023-12-28T01:40:03;97494.66;;;7.86;43.67
39363;BME280;25088;43.238;23.110;2023-12-28T01:42:28;97488.50;;;8.04;43.19
39363;BME280;25088;43.238;23.110;2023-12-28T01:44:56;97479.09;;;8.00;43.41
39363;BME280;25088;43.238;23.110;2023-12-28T01:47:23;97475.09;;;8.09;43.23
39363;BME280;25088;43.238;23.110;2023-12-28T01:49:49;97472.56;;;8.14;42.70
39363;BME280;25088;43.238;23.110;2023-12-28T01:52:15;97473.94;;;7.92;44.01
39363;BME280;25088;43.238;23.110;2023-12-28T01:54:40;97472.47;;;7.89;44.17
39363;BME280;25088;43.238;23.110;2023-12-28T01:57:06;97479.56;;;7.90;44.58
39363;BME280;25088;43.238;23.110;2023-12-28T01:59:32;97475.22;;;7.83;44.96
39363;BME280;25088;43.238;23.110;2023-12-28T02:01:58;97473.28;;;7.96;45.08
39363;BME280;25088;43.238;23.110;2023-12-28T02:04:24;97470.63;;;7.83;44.75
39363;BME280;25088;43.238;23.110;2023-12-28T02:06:59;97438.94;;;7.57;45.34
39363;BME280;25088;43.238;23.110;2023-12-28T02:09:24;97477.34;;;7.74;44.94
39363;BME280;25088;43.238;23.110;2023-12-28T02:11:50;97472.53;;;7.69;44.02
39363;BME280;25088;43.238;23.110;2023-12-28T02:14:17;97478.91;;;7.95;43.90
39363;BME280;25088;43.238;23.110;2023-12-28T02:22:13;97470.28;;;8.11;43.32
39363;BME280;25088;43.238;23.110;2023-12-28T02:25:08;97469.47;;;8.11;43.64
39363;BME280;25088;43.238;23.110;2023-12-28T02:27:44;97471.78;;;8.07;45.68
39363;BME280;25088;43.238;23.110;2023-12-28T02:30:16;97462.00;;;7.93;43.15
39363;BME280;25088;43.238;23.110;2023-12-28T02:35:45;97476.66;;;7.85;45.64
39363;BME280;25088;43.238;23.110;2023-12-28T02:38:14;97485.28;;;7.69;44.58
39363;BME280;25088;43.238;23.110;2023-12-28T02:40:42;97476.81;;;7.39;46.28
39363;BME280;25088;43.238;23.110;2023-12-28T02:43:10;97496.00;;;7.50;46.35
39363;BME280;25088;43.238;23.110;2023-12-28T02:45:36;97494.34;;;7.43;47.18
39363;BME280;25088;43.238;23.110;2023-12-28T02:48:02;97484.97;;;7.25;47.17
39363;BME280;25088;43.238;23.110;2023-12-28T02:50:28;97500.63;;;7.30;45.92
39363;BME280;25088;43.238;23.110;2023-12-28T02:52:58;97493.31;;;7.31;48.45
39363;BME280;25088;43.238;23.110;2023-12-28T02:55:24;97506.72;;;7.12;48.49
39363;BME280;25088;43.238;23.110;2023-12-28T02:57:51;97507.13;;;7.09;46.94
39363;BME280;25088;43.238;23.110;2023-12-28T03:00:16;97509.84;;;7.09;47.41
39363;BME280;25088;43.238;23.110;2023-12-28T03:02:42;97503.59;;;7.22;47.31
39363;BME280;25088;43.238;23.110;2023-12-28T03:05:08;97505.03;;;7.31;46.54
39363;BME280;25088;43.238;23.110;2023-12-28T03:07:34;97497.06;;;7.43;46.54
39363;BME280;25088;43.238;23.110;2023-12-28T03:10:00;97499.81;;;7.30;46.68
39363;BME280;25088;43.238;23.110;2023-12-28T03:12:25;97493.09;;;7.39;46.23
39363;BME280;25088;43.238;23.110;2023-12-28T03:14:51;97502.69;;;7.55;47.72
39363;BME280;25088;43.238;23.110;2023-12-28T03:17:16;97497.50;;;7.33;48.20
39363;BME280;25088;43.238;23.110;2023-12-28T03:19:42;97483.97;;;6.93;50.26
39363;BME280;25088;43.238;23.110;2023-12-28T03:22:07;97509.84;;;6.63;51.15
39363;BME280;25088;43.238;23.110;2023-12-28T03:24:33;97502.09;;;6.60;51.00
39363;BME280;25088;43.238;23.110;2023-12-28T03:26:58;97495.81;;;6.46;50.85
39363;BME280;25088;43.238;23.110;2023-12-28T03:29:24;97463.44;;;6.18;51.07
39363;BME280;25088;43.238;23.110;2023-12-28T03:31:49;97510.63;;;6.43;50.83
39363;BME280;25088;43.238;23.110;2023-12-28T03:34:15;97509.53;;;6.18;51.30
39363;BME280;25088;43.238;23.110;2023-12-28T03:36:41;97507.88;;;6.17;51.00
39363;BME280;25088;43.238;23.110;2023-12-28T03:39:08;97517.63;;;6.11;51.08
39363;BME280;25088;43.238;23.110;2023-12-28T03:41:33;97520.59;;;6.23;51.56
39363;BME280;25088;43.238;23.110;2023-12-28T03:43:59;97521.19;;;6.12;51.81
39363;BME280;25088;43.238;23.110;2023-12-28T03:46:24;97523.03;;;6.11;51.16
39363;BME280;25088;43.238;23.110;2023-12-28T03:48:50;97525.16;;;6.16;50.98
39363;BME280;25088;43.238;23.110;2023-12-28T03:51:16;97515.13;;;6.16;50.28
39363;BME280;25088;43.238;23.110;2023-12-28T03:53:42;97527.06;;;6.29;51.05
39363;BME280;25088;43.238;23.110;2023-12-28T03:56:07;97512.41;;;6.16;51.38
39363;BME280;25088;43.238;23.110;2023-12-28T03:58:33;97527.47;;;6.19;50.98
39363;BME280;25088;43.238;23.110;2023-12-28T04:00:58;97521.03;;;6.27;50.82
39363;BME280;25088;43.238;23.110;2023-12-28T04:03:24;97527.44;;;6.12;51.70
39363;BME280;25088;43.238;23.110;2023-12-28T04:05:50;97520.59;;;6.23;50.60
39363;BME280;25088;43.238;23.110;2023-12-28T04:08:16;97491.31;;;5.99;50.12
39363;BME280;25088;43.238;23.110;2023-12-28T04:10:42;97482.13;;;6.00;49.55
39363;BME280;25088;43.238;23.110;2023-12-28T04:13:07;97521.66;;;6.35;50.25
39363;BME280;25088;43.238;23.110;2023-12-28T04:15:33;97516.41;;;6.20;50.68
39363;BME280;25088;43.238;23.110;2023-12-28T04:17:58;97515.78;;;6.18;49.61
39363;BME280;25088;43.238;23.110;2023-12-28T04:20:24;97507.44;;;6.20;49.68
39363;BME280;25088;43.238;23.110;2023-12-28T04:22:49;97494.31;;;6.17;49.70
39363;BME280;25088;43.238;23.110;2023-12-28T04:25:15;97503.28;;;6.31;50.35
39363;BME280;25088;43.238;23.110;2023-12-28T04:27:43;97515.41;;;6.28;49.83
39363;BME280;25088;43.238;23.110;2023-12-28T04:30:12;97494.94;;;6.26;49.88
39363;BME280;25088;43.238;23.110;2023-12-28T04:32:38;97497.81;;;6.11;50.25
39363;BME280;25088;43.238;23.110;2023-12-28T04:35:03;97493.59;;;6.02;50.46
39363;BME280;25088;43.238;23.110;2023-12-28T04:37:29;97488.25;;;6.21;49.27
39363;BME280;25088;43.238;23.110;2023-12-28T04:39:56;97507.28;;;6.41;48.75
39363;BME280;25088;43.238;23.110;2023-12-28T04:42:22;97500.84;;;6.56;48.72
39363;BME280;25088;43.238;23.110;2023-12-28T04:44:47;97450.72;;;6.18;49.47
39363;BME280;25088;43.238;23.110;2023-12-28T04:47:13;97500.44;;;6.52;49.22
39363;BME280;25088;43.238;23.110;2023-12-28T04:49:38;97509.22;;;6.74;48.85
39363;BME280;25088;43.238;23.110;2023-12-28T04:52:04;97499.78;;;6.50;50.86
39363;BME280;25088;43.238;23.110;2023-12-28T04:54:29;97507.09;;;6.43;48.71
39363;BME280;25088;43.238;23.110;2023-12-28T04:56:55;97495.38;;;6.29;50.82
39363;BME280;25088;43.238;23.110;2023-12-28T04:59:20;97490.72;;;6.16;52.19
39363;BME280;25088;43.238;23.110;2023-12-28T05:01:46;97501.13;;;6.00;52.86
39363;BME280;25088;43.238;23.110;2023-12-28T05:04:11;97503.38;;;5.96;51.72
39363;BME280;25088;43.238;23.110;2023-12-28T05:06:37;97497.59;;;6.06;51.19
39363;BME280;25088;43.238;23.110;2023-12-28T05:09:03;97492.06;;;5.86;50.55
39363;BME280;25088;43.238;23.110;2023-12-28T05:11:29;97465.78;;;5.86;50.86
39363;BME280;25088;43.238;23.110;2023-12-28T05:13:55;97490.72;;;6.03;51.23
39363;BME280;25088;43.238;23.110;2023-12-28T05:16:20;97490.97;;;5.74;52.24
39363;BME280;25088;43.238;23.110;2023-12-28T05:18:46;97486.22;;;5.82;51.79
39363;BME280;25088;43.238;23.110;2023-12-28T05:21:12;97484.38;;;5.89;51.03
39363;BME280;25088;43.238;23.110;2023-12-28T05:23:38;97471.81;;;5.82;51.70
39363;BME280;25088;43.238;23.110;2023-12-28T05:26:04;97436.34;;;5.63;51.58
39363;BME280;25088;43.238;23.110;2023-12-28T05:28:30;97496.47;;;5.87;52.98
39363;BME280;25088;43.238;23.110;2023-12-28T05:30:55;97477.00;;;5.77;51.43
39363;BME280;25088;43.238;23.110;2023-12-28T05:33:21;97444.47;;;5.63;52.02
39363;BME280;25088;43.238;23.110;2023-12-28T05:35:48;97494.84;;;5.99;54.28
39363;BME280;25088;43.238;23.110;2023-12-28T05:38:13;97502.16;;;6.05;50.92
39363;BME280;25088;43.238;23.110;2023-12-28T05:40:39;97495.75;;;6.13;51.60
39363;BME280;25088;43.238;23.110;2023-12-28T05:43:04;97491.56;;;6.10;52.32
39363;BME280;25088;43.238;23.110;2023-12-28T05:45:29;97484.91;;;6.19;52.22
39363;BME280;25088;43.238;23.110;2023-12-28T05:47:55;97487.41;;;6.21;51.54
39363;BME280;25088;43.238;23.110;2023-12-28T05:50:20;97489.13;;;6.35;50.72
39363;BME280;25088;43.238;23.110;2023-12-28T05:52:46;97488.50;;;6.33;50.77
39363;BME280;25088;43.238;23.110;2023-12-28T05:55:11;97492.25;;;6.39;51.13
39363;BME280;25088;43.238;23.110;2023-12-28T05:57:37;97496.19;;;6.23;51.85
39363;BME280;25088;43.238;23.110;2023-12-28T06:00:02;97504.94;;;6.18;51.19
39363;BME280;25088;43.238;23.110;2023-12-28T06:02:29;97506.16;;;6.16;51.87
39363;BME280;25088;43.238;23.110;2023-12-28T06:04:55;97504.72;;;6.13;51.78
39363;BME280;25088;43.238;23.110;2023-12-28T06:07:20;97512.00;;;6.13;53.88
39363;BME280;25088;43.238;23.110;2023-12-28T06:09:46;97508.28;;;6.20;50.84
39363;BME280;25088;43.238;23.110;2023-12-28T06:12:12;97512.84;;;6.20;51.71
39363;BME280;25088;43.238;23.110;2023-12-28T06:14:37;97513.69;;;6.20;52.19
39363;BME280;25088;43.238;23.110;2023-12-28T06:17:03;97522.03;;;6.19;50.73
39363;BME280;25088;43.238;23.110;2023-12-28T06:19:28;97500.28;;;6.06;51.74
39363;BME280;25088;43.238;23.110;2023-12-28T06:21:54;97510.75;;;6.15;52.09
39363;BME280;25088;43.238;23.110;2023-12-28T06:24:19;97524.88;;;5.98;53.76
39363;BME280;25088;43.238;23.110;2023-12-28T06:26:45;97522.28;;;5.83;52.98
39363;BME280;25088;43.238;23.110;2023-12-28T06:29:10;97513.63;;;6.01;52.68
39363;BME280;25088;43.238;23.110;2023-12-28T06:31:37;97498.31;;;5.86;53.13
39363;BME280;25088;43.238;23.110;2023-12-28T06:34:03;97518.16;;;5.87;52.63
39363;BME280;25088;43.238;23.110;2023-12-28T06:36:29;97514.06;;;6.04;51.11
39363;BME280;25088;43.238;23.110;2023-12-28T06:38:54;97523.69;;;6.13;51.90
39363;BME280;25088;43.238;23.110;2023-12-28T06:41:20;97514.31;;;6.16;50.29
39363;BME280;25088;43.238;23.110;2023-12-28T06:43:45;97516.53;;;6.67;50.20
39363;BME280;25088;43.238;23.110;2023-12-28T06:46:11;97517.13;;;7.48;49.86
39363;BME280;25088;43.238;23.110;2023-12-28T06:48:36;97507.97;;;8.52;47.51
39363;BME280;25088;43.238;23.110;2023-12-28T06:51:05;97520.72;;;9.15;47.00
39363;BME280;25088;43.238;23.110;2023-12-28T06:53:31;97507.41;;;9.87;44.06
39363;BME280;25088;43.238;23.110;2023-12-28T06:55:56;97479.09;;;10.25;43.40
39363;BME280;25088;43.238;23.110;2023-12-28T06:58:22;97461.38;;;10.57;41.64
39363;BME280;25088;43.238;23.110;2023-12-28T07:00:47;97499.81;;;10.74;40.93
39363;BME280;25088;43.238;23.110;2023-12-28T07:03:13;97502.53;;;11.39;40.07
39363;BME280;25088;43.238;23.110;2023-12-28T07:05:38;97499.56;;;11.29;39.89
39363;BME280;25088;43.238;23.110;2023-12-28T07:08:04;97464.00;;;11.06;39.08
39363;BME280;25088;43.238;23.110;2023-12-28T07:10:30;97506.59;;;11.84;38.87
39363;BME280;25088;43.238;23.110;2023-12-28T07:12:55;97496.19;;;12.09;38.09
39363;BME280;25088;43.238;23.110;2023-12-28T07:15:21;97507.97;;;12.79;37.62
39363;BME280;25088;43.238;23.110;2023-12-28T07:17:46;97499.78;;;12.96;38.88
39363;BME280;25088;43.238;23.110;2023-12-28T07:20:12;97504.28;;;13.18;38.08
39363;BME280;25088;43.238;23.110;2023-12-28T07:22:38;97512.81;;;13.34;36.84
39363;BME280;25088;43.238;23.110;2023-12-28T07:25:05;97502.47;;;13.58;35.67
39363;BME280;25088;43.238;23.110;2023-12-28T07:27:31;97503.72;;;13.50;36.94
39363;BME280;25088;43.238;23.110;2023-12-28T07:29:57;97500.53;;;13.75;35.71
39363;BME280;25088;43.238;23.110;2023-12-28T07:32:22;97490.03;;;13.89;35.56
39363;BME280;25088;43.238;23.110;2023-12-28T07:34:52;97484.50;;;14.28;35.89
39363;BME280;25088;43.238;23.110;2023-12-28T07:37:17;97498.59;;;14.36;36.81
39363;BME280;25088;43.238;23.110;2023-12-28T07:39:43;97494.00;;;14.91;35.55
39363;BME280;25088;43.238;23.110;2023-12-28T07:42:08;97497.13;;;14.99;36.42
39363;BME280;25088;43.238;23.110;2023-12-28T07:44:34;97506.25;;;14.78;35.80
39363;BME280;25088;43.238;23.110;2023-12-28T07:47:00;97491.25;;;15.18;35.37
39363;BME280;25088;43.238;23.110;2023-12-28T07:49:26;97491.09;;;15.35;35.69
39363;BME280;25088;43.238;23.110;2023-12-28T07:51:51;97481.28;;;15.81;35.11
39363;BME280;25088;43.238;23.110;2023-12-28T07:54:17;97483.88;;;15.98;34.90
39363;BME280;25088;43.238;23.110;2023-12-28T07:56:42;97480.66;;;16.16;35.10
39363;BME280;25088;43.238;23.110;2023-12-28T07:59:08;97479.34;;;16.34;35.23
39363;BME280;25088;43.238;23.110;2023-12-28T08:01:34;97480.28;;;16.65;34.82
39363;BME280;25088;43.238;23.110;2023-12-28T08:04:00;97464.09;;;16.94;34.62
39363;BME280;25088;43.238;23.110;2023-12-28T08:06:27;97469.63;;;17.20;34.87
39363;BME280;25088;43.238;23.110;2023-12-28T08:08:52;97456.66;;;16.95;34.98
39363;BME280;25088;43.238;23.110;2023-12-28T08:11:19;97465.22;;;16.88;35.55
39363;BME280;25088;43.238;23.110;2023-12-28T08:13:44;97462.47;;;17.19;34.48
39363;BME280;25088;43.238;23.110;2023-12-28T08:16:10;97456.41;;;17.32;34.13
39363;BME280;25088;43.238;23.110;2023-12-28T08:18:35;97458.31;;;17.88;34.00
39363;BME280;25088;43.238;23.110;2023-12-28T08:21:01;97457.56;;;18.42;34.53
39363;BME280;25088;43.238;23.110;2023-12-28T08:23:26;97450.13;;;18.92;32.50
39363;BME280;25088;43.238;23.110;2023-12-28T08:25:52;97420.97;;;19.04;32.16
39363;BME280;25088;43.238;23.110;2023-12-28T08:28:17;97448.41;;;19.35;32.29
39363;BME280;25088;43.238;23.110;2023-12-28T08:30:43;97430.19;;;19.29;31.80
39363;BME280;25088;43.238;23.110;2023-12-28T08:33:08;97432.53;;;19.80;32.06
39363;BME280;25088;43.238;23.110;2023-12-28T08:35:33;97434.56;;;19.93;32.06
39363;BME280;25088;43.238;23.110;2023-12-28T08:38:00;97431.16;;;20.01;31.52
39363;BME280;25088;43.238;23.110;2023-12-28T08:40:25;97426.88;;;20.57;30.82
39363;BME280;25088;43.238;23.110;2023-12-28T08:42:51;97427.94;;;20.61;31.14
39363;BME280;25088;43.238;23.110;2023-12-28T08:45:16;97424.34;;;20.60;31.37
39363;BME280;25088;43.238;23.110;2023-12-28T08:47:42;97416.72;;;20.90;31.08
39363;BME280;25088;43.238;23.110;2023-12-28T08:50:07;97417.78;;;21.27;31.81
39363;BME280;25088;43.238;23.110;2023-12-28T08:52:33;97405.13;;;21.39;31.63
39363;BME280;25088;43.238;23.110;2023-12-28T08:54:58;97414.31;;;21.67;30.67
39363;BME280;25088;43.238;23.110;2023-12-28T08:57:26;97402.19;;;21.77;30.92
39363;BME280;25088;43.238;23.110;2023-12-28T08:59:51;97407.41;;;22.11;31.17
39363;BME280;25088;43.238;23.110;2023-12-28T09:02:17;97400.59;;;22.04;31.61
39363;BME280;25088;43.238;23.110;2023-12-28T09:04:42;97351.25;;;22.09;30.30
39363;BME280;25088;43.238;23.110;2023-12-28T09:07:08;97377.59;;;22.53;29.96
39363;BME280;25088;43.238;23.110;2023-12-28T09:09:34;97385.53;;;22.82;29.51
39363;BME280;25088;43.238;23.110;2023-12-28T09:12:00;97388.44;;;22.91;29.59
39363;BME280;25088;43.238;23.110;2023-12-28T09:14:25;97371.22;;;22.89;29.69
39363;BME280;25088;43.238;23.110;2023-12-28T09:16:51;97370.81;;;23.18;29.39
39363;BME280;25088;43.238;23.110;2023-12-28T09:19:16;97380.41;;;23.12;29.45
39363;BME280;25088;43.238;23.110;2023-12-28T09:21:42;97366.34;;;23.17;28.79
39363;BME280;25088;43.238;23.110;2023-12-28T09:24:08;97371.09;;;23.39;29.00
39363;BME280;25088;43.238;23.110;2023-12-28T09:26:33;97368.50;;;23.42;28.94
39363;BME280;25088;43.238;23.110;2023-12-28T09:28:59;97353.03;;;23.59;28.47
39363;BME280;25088;43.238;23.110;2023-12-28T09:31:25;97363.69;;;23.88;28.38
39363;BME280;25088;43.238;23.110;2023-12-28T09:33:50;97366.63;;;23.83;28.36
39363;BME280;25088;43.238;23.110;2023-12-28T09:36:16;97363.31;;;23.81;28.71
39363;BME280;25088;43.238;23.110;2023-12-28T09:38:42;97349.47;;;24.07;28.42
39363;BME280;25088;43.238;23.110;2023-12-28T09:41:15;97345.16;;;24.40;28.15
39363;BME280;25088;43.238;23.110;2023-12-28T09:43:53;97345.84;;;24.63;27.99
39363;BME280;25088;43.238;23.110;2023-12-28T09:46:20;97346.19;;;24.70;27.79
39363;BME280;25088;43.238;23.110;2023-12-28T09:48:45;97344.69;;;24.47;28.10
39363;BME280;25088;43.238;23.110;2023-12-28T09:51:12;97345.50;;;24.56;28.13
39363;BME280;25088;43.238;23.110;2023-12-28T09:53:37;97341.91;;;24.64;27.89
39363;BME280;25088;43.238;23.110;2023-12-28T09:56:03;97314.13;;;24.50;27.79
39363;BME280;25088;43.238;23.110;2023-12-28T09:58:29;97327.47;;;24.62;27.73
39363;BME280;25088;43.238;23.110;2023-12-28T10:00:57;97327.28;;;24.59;27.71
39363;BME280;25088;43.238;23.110;2023-12-28T10:03:22;97334.34;;;24.56;28.16
39363;BME280;25088;43.238;23.110;2023-12-28T10:05:48;97321.38;;;24.60;27.67
39363;BME280;25088;43.238;23.110;2023-12-28T10:08:14;97303.09;;;24.28;28.12
39363;BME280;25088;43.238;23.110;2023-12-28T10:10:41;97319.91;;;24.80;27.75
39363;BME280;25088;43.238;23.110;2023-12-28T10:13:07;97327.81;;;24.87;27.63
39363;BME280;25088;43.238;23.110;2023-12-28T10:15:34;97314.00;;;24.82;27.66
39363;BME280;25088;43.238;23.110;2023-12-28T10:18:00;97304.94;;;25.19;27.15
39363;BME280;25088;43.238;23.110;2023-12-28T10:20:27;97310.84;;;25.26;26.94
39363;BME280;25088;43.238;23.110;2023-12-28T10:22:52;97298.69;;;25.14;27.09
39363;BME280;25088;43.238;23.110;2023-12-28T10:25:17;97305.09;;;25.14;27.17
39363;BME280;25088;43.238;23.110;2023-12-28T10:27:43;97301.16;;;25.80;26.52
39363;BME280;25088;43.238;23.110;2023-12-28T10:30:09;97297.16;;;25.42;26.97
39363;BME280;25088;43.238;23.110;2023-12-28T10:32:41;97280.94;;;25.65;26.88
39363;BME280;25088;43.238;23.110;2023-12-28T10:35:07;97283.56;;;25.79;26.53
39363;BME280;25088;43.238;23.110;2023-12-28T10:37:35;97278.47;;;26.11;26.55
39363;BME280;25088;43.238;23.110;2023-12-28T10:40:05;97270.19;;;25.85;26.35
39363;BME280;25088;43.238;23.110;2023-12-28T10:42:33;97263.41;;;25.94;26.28
39363;BME280;25088;43.238;23.110;2023-12-28T10:45:03;97269.13;;;26.27;25.80
39363;BME280;25088;43.238;23.110;2023-12-28T10:47:33;97270.78;;;25.99;26.31
39363;BME280;25088;43.238;23.110;2023-12-28T10:50:05;97271.22;;;26.30;25.90
39363;BME280;25088;43.238;23.110;2023-12-28T10:52:31;97258.47;;;26.21;25.60
39363;BME280;25088;43.238;23.110;2023-12-28T10:58:19;97248.78;;;26.81;25.49
39363;BME280;25088;43.238;23.110;2023-12-28T11:00:59;97241.00;;;26.87;24.79
39363;BME280;25088;43.238;23.110;2023-12-28T11:03:30;97244.31;;;27.01;24.85
39363;BME280;25088;43.238;23.110;2023-12-28T11:05:59;97231.53;;;27.12;24.72
39363;BME280;25088;43.238;23.110;2023-12-28T11:08:25;97236.25;;;27.33;24.56
39363;BME280;25088;43.238;23.110;2023-12-28T11:10:51;97226.91;;;27.41;24.55
39363;BME280;25088;43.238;23.110;2023-12-28T11:13:20;97233.06;;;27.34;24.38
39363;BME280;25088;43.238;23.110;2023-12-28T11:15:47;97229.53;;;27.13;24.71
39363;BME280;25088;43.238;23.110;2023-12-28T11:18:15;97226.69;;;27.46;24.50
39363;BME280;25088;43.238;23.110;2023-12-28T11:20:42;97226.88;;;27.16;24.40
39363;BME280;25088;43.238;23.110;2023-12-28T11:23:09;97220.78;;;27.14;24.38
39363;BME280;25088;43.238;23.110;2023-12-28T11:25:35;97204.47;;;27.41;23.93
39363;BME280;25088;43.238;23.110;2023-12-28T11:28:09;97217.75;;;27.19;24.91
39363;BME280;25088;43.238;23.110;2023-12-28T11:30:35;97215.47;;;27.00;24.90
39363;BME280;25088;43.238;23.110;2023-12-28T11:33:02;97203.22;;;26.72;25.00
39363;BME280;25088;43.238;23.110;2023-12-28T11:35:39;97205.13;;;27.13;24.46
39363;BME280;25088;43.238;23.110;2023-12-28T11:38:06;97186.22;;;27.22;24.44
39363;BME280;25088;43.238;23.110;2023-12-28T11:40:45;97173.94;;;27.15;24.31
39363;BME280;25088;43.238;23.110;2023-12-28T11:43:20;97191.53;;;27.03;24.91
39363;BME280;25088;43.238;23.110;2023-12-28T11:45:55;97193.09;;;27.13;24.09
39363;BME280;25088;43.238;23.110;2023-12-28T11:48:27;97168.66;;;27.01;24.23
39363;BME280;25088;43.238;23.110;2023-12-28T11:51:02;97173.94;;;27.15;24.09
39363;BME280;25088;43.238;23.110;2023-12-28T11:53:28;97170.69;;;27.37;23.75
39363;BME280;25088;43.238;23.110;2023-12-28T11:56:03;97181.34;;;27.31;24.25
39363;BME280;25088;43.238;23.110;2023-12-28T11:58:30;97190.00;;;27.51;24.00
39363;BME280;25088;43.238;23.110;2023-12-28T12:00:55;97188.66;;;27.24;24.56
39363;BME280;25088;43.238;23.110;2023-12-28T12:03:24;97185.19;;;27.39;24.15
39363;BME280;25088;43.238;23.110;2023-12-28T12:05:50;97171.63;;;27.29;23.80
39363;BME280;25088;43.238;23.110;2023-12-28T12:08:15;97180.50;;;27.43;24.13
39363;BME280;25088;43.238;23.110;2023-12-28T12:10:41;97169.31;;;27.43;23.83
39363;BME280;25088;43.238;23.110;2023-12-28T12:13:10;97172.78;;;27.28;24.01
39363;BME280;25088;43.238;23.110;2023-12-28T12:15:36;97160.78;;;26.94;24.80
39363;BME280;25088;43.238;23.110;2023-12-28T12:18:03;97173.50;;;27.37;24.29
39363;BME280;25088;43.238;23.110;2023-12-28T12:20:29;97164.16;;;27.21;24.11
39363;BME280;25088;43.238;23.110;2023-12-28T12:22:59;97173.44;;;26.67;24.84
39363;BME280;25088;43.238;23.110;2023-12-28T12:25:25;97180.47;;;26.73;24.89
39363;BME280;25088;43.238;23.110;2023-12-28T12:27:50;97170.00;;;26.95;24.55
39363;BME280;25088;43.238;23.110;2023-12-28T12:30:16;97175.84;;;26.90;24.93
39363;BME280;25088;43.238;23.110;2023-12-28T12:32:41;97178.53;;;26.86;24.81
39363;BME280;25088;43.238;23.110;2023-12-28T12:35:09;97151.41;;;26.78;24.92
39363;BME280;25088;43.238;23.110;2023-12-28T12:37:36;97170.00;;;26.95;24.84
39363;BME280;25088;43.238;23.110;2023-12-28T12:40:03;97152.69;;;27.14;24.53
39363;BME280;25088;43.238;23.110;2023-12-28T12:42:31;97160.41;;;26.84;25.23
39363;BME280;25088;43.238;23.110;2023-12-28T12:44:57;97172.19;;;27.10;24.48
39363;BME280;25088;43.238;23.110;2023-12-28T12:47:22;97150.16;;;26.75;24.70
39363;BME280;25088;43.238;23.110;2023-12-28T12:49:51;97164.75;;;26.81;25.14
39363;BME280;25088;43.238;23.110;2023-12-28T12:52:16;97155.63;;;26.84;24.56
39363;BME280;25088;43.238;23.110;2023-12-28T12:54:42;97140.84;;;26.96;24.34
39363;BME280;25088;43.238;23.110;2023-12-28T12:57:08;97153.56;;;26.60;25.09
39363;BME280;25088;43.238;23.110;2023-12-28T12:59:33;97149.31;;;26.21;25.59
39363;BME280;25088;43.238;23.110;2023-12-28T13:02:00;97126.19;;;25.91;25.89